Time;durP1;ratioP1;P1;durP2;ratioP2;P2;SDS_P1;SDS_P2;PMS_P1;PMS_P2;Temp;Humidity;BMP_temperature;BMP_pressure;BME280_temperature;BME280_humidity;BME280_pressure;Samples;Min_cycle;Max_cycle;Signal;HPM_P1;HPM_P2
2022/06/15 00:00:56;;;;;;;;;;;13.60;99.90;;;;;;5113597;28;19930;-67
2022/06/15 00:03:22;;;;;;;;;;;13.60;99.90;;;;;;5113780;28;19998;-67
2022/06/15 00:05:47;;;;;;;;;;;13.50;99.90;;;;;;5113654;28;19927;-67
2022/06/15 00:08:13;;;;;;;;;;;13.50;99.90;;;;;;5113317;28;19924;-67
2022/06/15 00:10:39;;;;;;;;;;;13.50;99.90;;;;;;5113230;28;19965;-66
2022/06/15 00:13:05;;;;;;;;;;;13.40;99.90;;;;;;5113292;28;19920;-66
2022/06/15 00:15:30;;;;;;;;;;;13.40;99.90;;;;;;5113225;28;19976;-66
2022/06/15 00:17:56;;;;;;;;;;;13.30;99.90;;;;;;5113506;28;20055;-66
2022/06/15 00:20:21;;;;;;;;;;;13.30;99.90;;;;;;5111440;28;19920;-67
2022/06/15 00:22:47;;;;;;;;;;;13.30;99.90;;;;;;5113277;28;19919;-67
2022/06/15 00:25:13;;;;;;;;;;;13.30;99.90;;;;;;5113245;28;19920;-66
2022/06/15 00:27:39;;;;;;;;;;;13.30;99.90;;;;;;5113066;28;19998;-67
2022/06/15 00:30:05;;;;;;;;;;;13.20;99.90;;;;;;5112652;28;20014;-67
2022/06/15 00:32:30;;;;;;;;;;;13.20;99.90;;;;;;5112798;28;19923;-67
2022/06/15 00:34:56;;;;;;;;;;;13.20;99.90;;;;;;5113015;28;19923;-67
2022/06/15 00:37:22;;;;;;;;;;;13.10;99.90;;;;;;5113011;28;19920;-67
2022/06/15 00:39:47;;;;;;;;;;;13.10;99.90;;;;;;5112600;28;19965;-67
2022/06/15 00:42:13;;;;;;;;;;;13.00;99.90;;;;;;5112768;28;19955;-67
2022/06/15 00:44:39;;;;;;;;;;;13.10;99.90;;;;;;5112495;28;19920;-67
2022/06/15 00:47:08;;;;;;;;;;;13.00;99.90;;;;;;5112922;28;19942;-67
2022/06/15 00:49:34;;;;;;;;;;;13.00;99.90;;;;;;5112525;27;20308;-67
2022/06/15 00:52:04;;;;;;;;;;;12.90;99.90;;;;;;5112659;28;19924;-67
2022/06/15 00:54:30;;;;;;;;;;;12.90;99.90;;;;;;5112089;28;20337;-67
2022/06/15 00:56:55;;;;;;;;;;;12.90;99.90;;;;;;5112140;28;19928;-67
2022/06/15 00:59:28;;;;;;;;;;;12.70;99.90;;;;;;5112105;28;20394;-67
2022/06/15 01:01:53;;;;;;;;;;;12.80;99.90;;;;;;5111251;28;19977;-67
2022/06/15 01:04:20;;;;;;;;;;;12.80;99.90;;;;;;5112367;28;19971;-67
2022/06/15 01:07:15;;;;;;;;;;;12.80;99.90;;;;;;5112368;28;19969;-67
2022/06/15 01:09:48;;;;;;;;;;;12.70;99.90;;;;;;5093996;28;19927;-67
2022/06/15 01:12:29;;;;;;;;;;;12.70;99.90;;;;;;5112422;28;19919;-67
2022/06/15 01:15:02;;;;;;;;;;;12.70;99.90;;;;;;5112103;28;19919;-67
2022/06/15 01:17:46;;;;;;;;;;;12.60;99.90;;;;;;5112340;28;19927;-67
2022/06/15 01:20:11;;;;;;;;;;;12.60;99.90;;;;;;5110894;28;19920;-67
2022/06/15 01:22:43;;;;;;;;;;;12.60;99.90;;;;;;5111969;28;20018;-67
2022/06/15 01:25:23;;;;;;;;;;;12.50;99.90;;;;;;5112117;28;19965;-66
2022/06/15 01:27:51;;;;;;;;;;;12.60;99.90;;;;;;5112008;28;19920;-67
2022/06/15 01:30:43;;;;;;;;;;;12.60;99.90;;;;;;5111871;28;20006;-66
2022/06/15 01:33:16;;;;;;;;;;;12.60;99.90;;;;;;5080134;28;19926;-67
2022/06/15 01:35:50;;;;;;;;;;;12.60;99.90;;;;;;5111958;28;19919;-67
2022/06/15 01:38:21;;;;;;;;;;;12.60;99.90;;;;;;5111897;28;19971;-66
2022/06/15 01:41:05;;;;;;;;;;;12.60;99.90;;;;;;5111651;28;19924;-67
2022/06/15 01:43:33;;;;;;;;;;;12.60;99.90;;;;;;5111883;28;19920;-67
2022/06/15 01:45:59;;;;;;;;;;;12.50;99.90;;;;;;5111870;28;19924;-67
2022/06/15 01:48:26;;;;;;;;;;;12.40;99.90;;;;;;5110294;28;19931;-67
2022/06/15 01:50:54;;;;;;;;;;;12.40;99.90;;;;;;5111765;28;20281;-66
2022/06/15 01:53:27;;;;;;;;;;;12.30;99.90;;;;;;5111858;28;19920;-67
2022/06/15 01:55:56;;;;;;;;;;;12.40;99.90;;;;;;5111921;28;20291;-67
2022/06/15 01:58:24;;;;;;;;;;;12.40;99.90;;;;;;5111564;28;19989;-67
2022/06/15 02:01:00;;;;;;;;;;;12.40;99.90;;;;;;5111521;28;20380;-67
2022/06/15 02:03:33;;;;;;;;;;;12.40;99.90;;;;;;5111407;28;20006;-67
2022/06/15 02:06:06;;;;;;;;;;;12.40;99.90;;;;;;5112247;28;19919;-66
2022/06/15 02:08:44;;;;;;;;;;;12.40;99.90;;;;;;5115561;28;19931;-66
2022/06/15 02:11:21;;;;;;;;;;;12.30;99.90;;;;;;5115744;28;19971;-67
2022/06/15 02:14:01;;;;;;;;;;;12.30;99.90;;;;;;5115648;28;19934;-67
2022/06/15 02:16:40;;;;;;;;;;;12.30;99.90;;;;;;5115620;28;19919;-66
2022/06/15 02:19:08;;;;;;;;;;;12.20;99.90;;;;;;5113900;28;19928;-67
2022/06/15 02:21:35;;;;;;;;;;;12.20;99.90;;;;;;5115610;28;19945;-67
2022/06/15 02:24:01;;;;;;;;;;;12.20;99.90;;;;;;5115433;28;20043;-66
2022/06/15 02:26:29;;;;;;;;;;;12.20;99.90;;;;;;5115439;28;20325;-67
2022/06/15 02:28:58;;;;;;;;;;;12.20;99.90;;;;;;5115187;28;20100;-66
2022/06/15 02:31:25;;;;;;;;;;;12.10;99.90;;;;;;5114042;28;19919;-67
2022/06/15 02:33:53;;;;;;;;;;;12.00;99.90;;;;;;5115337;28;20018;-66
2022/06/15 02:36:19;;;;;;;;;;;12.10;99.90;;;;;;5115311;28;20480;-66
2022/06/15 02:38:46;;;;;;;;;;;12.10;99.90;;;;;;5114950;28;20053;-66
2022/06/15 02:41:12;;;;;;;;;;;12.10;99.90;;;;;;5115369;28;19920;-67
2022/06/15 02:43:39;;;;;;;;;;;12.20;99.90;;;;;;5115247;28;19999;-66
2022/06/15 02:46:05;;;;;;;;;;;12.20;99.90;;;;;;5115288;28;20294;-67
2022/06/15 02:48:30;;;;;;;;;;;12.10;99.90;;;;;;5114815;28;19973;-66
2022/06/15 02:51:07;;;;;;;;;;;12.10;99.90;;;;;;5115418;28;20410;-67
2022/06/15 02:53:34;;;;;;;;;;;12.10;99.90;;;;;;5114820;28;19988;-67
2022/06/15 02:56:00;;;;;;;;;;;12.10;99.90;;;;;;5114518;28;19919;-67
2022/06/15 02:58:33;;;;;;;;;;;12.10;99.90;;;;;;5114379;28;20002;-67
2022/06/15 03:00:59;;;;;;;;;;;12.20;99.90;;;;;;5113458;28;19927;-67
2022/06/15 03:03:26;;;;;;;;;;;12.10;99.90;;;;;;5111152;28;19920;-67
2022/06/15 03:05:51;;;;;;;;;;;12.10;99.90;;;;;;5110625;28;19924;-67
2022/06/15 03:08:17;;;;;;;;;;;12.10;99.90;;;;;;5111077;28;20355;-66
2022/06/15 03:10:43;;;;;;;;;;;12.00;99.90;;;;;;5112588;28;20007;-66
2022/06/15 03:13:08;;;;;;;;;;;12.00;99.90;;;;;;5113373;28;19973;-66
2022/06/15 03:15:34;;;;;;;;;;;12.00;99.90;;;;;;5112509;28;20002;-67
2022/06/15 03:17:59;;;;;;;;;;;12.10;99.90;;;;;;5112286;28;20368;-67
2022/06/15 03:20:25;;;;;;;;;;;12.10;99.90;;;;;;5112246;28;20019;-67
2022/06/15 03:22:51;;;;;;;;;;;12.10;99.90;;;;;;5113216;28;19927;-67
2022/06/15 03:25:16;;;;;;;;;;;12.10;99.90;;;;;;5113261;28;20023;-66
2022/06/15 03:27:42;;;;;;;;;;;12.10;99.90;;;;;;5113191;28;19920;-66
2022/06/15 03:30:08;;;;;;;;;;;12.10;99.90;;;;;;5112694;28;19997;-67
2022/06/15 03:32:34;;;;;;;;;;;12.00;99.90;;;;;;5113232;28;19919;-67
2022/06/15 03:34:59;;;;;;;;;;;12.10;99.90;;;;;;5113194;28;19924;-67
2022/06/15 03:37:25;;;;;;;;;;;12.10;99.90;;;;;;5112968;28;20771;-66
2022/06/15 03:39:52;;;;;;;;;;;12.10;99.90;;;;;;5112826;28;19946;-66
2022/06/15 03:42:19;;;;;;;;;;;12.10;99.90;;;;;;5112977;28;19920;-67
2022/06/15 03:44:44;;;;;;;;;;;12.10;99.90;;;;;;5112628;28;20042;-67
2022/06/15 03:47:17;;;;;;;;;;;12.20;99.90;;;;;;5111499;28;20022;-66
2022/06/15 03:50:00;;;;;;;;;;;12.20;99.90;;;;;;5112684;28;19924;-66
2022/06/15 03:52:26;;;;;;;;;;;12.20;99.90;;;;;;5112909;28;19928;-67
2022/06/15 03:54:52;;;;;;;;;;;12.30;99.90;;;;;;5112117;28;20006;-66
2022/06/15 03:57:19;;;;;;;;;;;12.30;99.90;;;;;;5111737;28;19920;-66
2022/06/15 03:59:45;;;;;;;;;;;12.40;99.90;;;;;;5049632;28;1782859;-67
2022/06/15 04:02:10;;;;;;;;;;;12.40;99.90;;;;;;5113905;28;19919;-66
2022/06/15 04:04:36;;;;;;;;;;;12.50;99.90;;;;;;5112282;28;19928;-66
2022/06/15 04:07:02;;;;;;;;;;;12.50;99.90;;;;;;5113560;28;20445;-67
2022/06/15 04:09:28;;;;;;;;;;;12.60;99.90;;;;;;5113271;28;19943;-66
2022/06/15 04:12:02;;;;;;;;;;;12.70;99.90;;;;;;5113643;28;19919;-67
2022/06/15 04:14:28;;;;;;;;;;;12.80;99.90;;;;;;5113696;27;19962;-67
2022/06/15 04:16:54;;;;;;;;;;;12.80;99.90;;;;;;5113638;28;19920;-67
2022/06/15 04:19:24;;;;;;;;;;;12.90;99.90;;;;;;5113376;28;19927;-67
2022/06/15 04:21:49;;;;;;;;;;;12.90;99.90;;;;;;5113515;27;19979;-66
2022/06/15 04:24:16;;;;;;;;;;;13.00;99.90;;;;;;5113445;28;20018;-67
2022/06/15 04:26:41;;;;;;;;;;;13.20;99.90;;;;;;5113736;28;19930;-66
2022/06/15 04:29:07;;;;;;;;;;;13.30;99.90;;;;;;5112059;28;19924;-66
2022/06/15 04:31:32;;;;;;;;;;;13.50;99.90;;;;;;5113192;28;19919;-66
2022/06/15 04:33:58;;;;;;;;;;;13.60;99.90;;;;;;5112995;28;20068;-66
2022/06/15 04:36:25;;;;;;;;;;;13.60;99.90;;;;;;5112828;28;20027;-66
2022/06/15 04:38:51;;;;;;;;;;;13.60;99.90;;;;;;5112884;28;20010;-67
2022/06/15 04:41:16;;;;;;;;;;;13.80;99.90;;;;;;5113032;28;20011;-67
2022/06/15 04:43:42;;;;;;;;;;;13.90;99.90;;;;;;5112804;28;20415;-67
2022/06/15 04:46:07;;;;;;;;;;;14.00;99.90;;;;;;5112860;28;20349;-67
2022/06/15 04:48:33;;;;;;;;;;;14.10;99.90;;;;;;5112446;28;20272;-67
2022/06/15 04:51:08;;;;;;;;;;;14.30;99.90;;;;;;5112523;28;19920;-67
2022/06/15 04:53:33;;;;;;;;;;;14.20;99.90;;;;;;5112576;28;19919;-67
2022/06/15 04:55:59;;;;;;;;;;;14.30;99.90;;;;;;5112699;28;19924;-67
2022/06/15 04:58:24;;;;;;;;;;;14.30;99.90;;;;;;5112313;28;19926;-67
2022/06/15 05:00:50;;;;;;;;;;;14.30;99.90;;;;;;5112541;28;20341;-67
2022/06/15 05:03:16;;;;;;;;;;;14.40;99.90;;;;;;5112419;28;20280;-67
2022/06/15 05:05:41;;;;;;;;;;;14.60;99.90;;;;;;5112237;28;19920;-67
2022/06/15 05:08:07;;;;;;;;;;;14.70;99.90;;;;;;5112464;28;20404;-67
2022/06/15 05:10:32;;;;;;;;;;;14.90;99.90;;;;;;5112073;28;19920;-67
2022/06/15 05:12:58;;;;;;;;;;;14.90;99.90;;;;;;5111129;28;19919;-67
2022/06/15 05:15:23;;;;;;;;;;;15.20;99.90;;;;;;5112211;28;19927;-67
2022/06/15 05:17:50;;;;;;;;;;;15.30;99.90;;;;;;5112293;28;19919;-67
2022/06/15 05:20:16;;;;;;;;;;;15.40;99.90;;;;;;5111772;28;19935;-67
2022/06/15 05:22:42;;;;;;;;;;;15.60;99.90;;;;;;5112203;28;19919;-67
2022/06/15 05:25:09;;;;;;;;;;;15.90;99.90;;;;;;5112384;28;19920;-67
2022/06/15 05:27:35;;;;;;;;;;;15.80;99.90;;;;;;5112231;28;19926;-67
2022/06/15 05:30:00;;;;;;;;;;;16.10;99.90;;;;;;5111840;28;20675;-67
2022/06/15 05:32:26;;;;;;;;;;;16.00;99.90;;;;;;5112020;28;19927;-67
2022/06/15 05:34:53;;;;;;;;;;;16.10;99.90;;;;;;5111776;28;19919;-67
2022/06/15 05:37:19;;;;;;;;;;;16.20;99.90;;;;;;5112206;28;19981;-67
2022/06/15 05:39:44;;;;;;;;;;;16.20;99.90;;;;;;5111556;28;20387;-67
2022/06/15 05:42:10;;;;;;;;;;;16.30;99.90;;;;;;5112027;28;19958;-67
2022/06/15 05:47:01;;;;;;;;;;;16.60;99.90;;;;;;5111804;28;19927;-67
2022/06/15 05:49:27;;;;;;;;;;;16.60;99.90;;;;;;5111277;28;20014;-67
2022/06/15 05:51:53;;;;;;;;;;;16.70;99.90;;;;;;5111900;28;19920;-67
2022/06/15 05:54:18;;;;;;;;;;;16.70;99.90;;;;;;5111570;28;19927;-66
2022/06/15 05:56:44;;;;;;;;;;;16.80;99.90;;;;;;5111133;28;20018;-66
2022/06/15 05:59:09;;;;;;;;;;;16.90;99.90;;;;;;5111374;28;19924;-67
2022/06/15 06:01:36;;;;;;;;;;;17.10;99.90;;;;;;5111839;28;20302;-67
2022/06/15 06:04:02;;;;;;;;;;;17.00;99.90;;;;;;5111682;28;19943;-67
2022/06/15 06:06:28;;;;;;;;;;;17.10;99.90;;;;;;5111741;28;19924;-67
2022/06/15 06:08:53;;;;;;;;;;;17.20;99.90;;;;;;5111268;28;19971;-67
2022/06/15 06:11:20;;;;;;;;;;;17.20;99.90;;;;;;5111529;28;19955;-67
2022/06/15 06:13:45;;;;;;;;;;;17.20;99.90;;;;;;5111699;28;19926;-67
2022/06/15 06:16:11;;;;;;;;;;;17.40;99.90;;;;;;5111682;28;20317;-67
2022/06/15 06:18:36;;;;;;;;;;;17.30;99.90;;;;;;5111267;28;19974;-66
2022/06/15 06:21:03;;;;;;;;;;;17.40;99.90;;;;;;5111392;28;19920;-67
2022/06/15 06:23:29;;;;;;;;;;;17.50;99.90;;;;;;5111396;28;20441;-67
2022/06/15 06:25:54;;;;;;;;;;;17.60;99.90;;;;;;5111419;28;19920;-67
2022/06/15 06:28:28;;;;;;;;;;;17.50;99.90;;;;;;5111447;28;20304;-67
2022/06/15 06:30:57;;;;;;;;;;;17.50;99.90;;;;;;5111617;28;19981;-67
2022/06/15 06:33:26;;;;;;;;;;;17.60;99.90;;;;;;5111376;28;20272;-67
2022/06/15 06:35:53;;;;;;;;;;;17.50;99.90;;;;;;5111287;28;20010;-67
2022/06/15 06:38:19;;;;;;;;;;;17.60;99.90;;;;;;5111267;28;20289;-67
2022/06/15 06:40:44;;;;;;;;;;;17.60;99.90;;;;;;5111053;28;19964;-67
2022/06/15 06:43:10;;;;;;;;;;;17.70;99.90;;;;;;5111407;28;20310;-67
2022/06/15 06:45:35;;;;;;;;;;;17.60;99.90;;;;;;5111433;28;19982;-67
2022/06/15 06:48:01;;;;;;;;;;;17.50;99.90;;;;;;5111301;28;19931;-67
2022/06/15 06:50:27;;;;;;;;;;;17.70;99.90;;;;;;5110943;28;19923;-67
2022/06/15 06:52:53;;;;;;;;;;;17.80;99.90;;;;;;5113151;28;19930;-67
2022/06/15 06:55:20;;;;;;;;;;;18.00;99.90;;;;;;5115036;28;19931;-67
2022/06/15 06:57:45;;;;;;;;;;;18.00;99.90;;;;;;5115209;28;20022;-67
2022/06/15 07:00:11;;;;;;;;;;;18.00;99.90;;;;;;5114542;28;20010;-67
2022/06/15 07:02:37;;;;;;;;;;;18.10;99.90;;;;;;5114847;28;19965;-67
2022/06/15 07:05:02;;;;;;;;;;;18.20;99.90;;;;;;5114804;28;19972;-67
2022/06/15 07:07:31;;;;;;;;;;;18.20;99.90;;;;;;5114681;28;20014;-67
2022/06/15 07:09:56;;;;;;;;;;;18.20;99.90;;;;;;5114570;28;19931;-67
2022/06/15 07:12:22;;;;;;;;;;;18.40;99.90;;;;;;5114861;28;19920;-67
2022/06/15 07:14:51;;;;;;;;;;;18.40;99.90;;;;;;5114601;28;19919;-67
2022/06/15 07:17:17;;;;;;;;;;;18.30;99.90;;;;;;5114597;28;19932;-67
2022/06/15 07:19:42;;;;;;;;;;;18.40;99.90;;;;;;5114141;28;20391;-67
2022/06/15 07:22:08;;;;;;;;;;;18.50;99.90;;;;;;5114468;28;19920;-67
2022/06/15 07:24:33;;;;;;;;;;;18.60;99.90;;;;;;5114267;28;19927;-67
2022/06/15 07:26:59;;;;;;;;;;;18.70;99.90;;;;;;5114516;28;19924;-67
2022/06/15 07:29:24;;;;;;;;;;;18.80;99.90;;;;;;5114089;28;20378;-67
2022/06/15 07:31:53;;;;;;;;;;;18.80;99.90;;;;;;5114310;28;19927;-67
2022/06/15 07:34:18;;;;;;;;;;;18.90;99.90;;;;;;5114309;28;19927;-67
2022/06/15 07:36:47;;;;;;;;;;;18.90;99.90;;;;;;5114151;28;19924;-67
2022/06/15 07:39:17;;;;;;;;;;;18.90;99.90;;;;;;5114153;28;19919;-67
2022/06/15 07:41:43;;;;;;;;;;;19.00;99.90;;;;;;5112767;28;19935;-67
2022/06/15 07:44:08;;;;;;;;;;;19.10;99.90;;;;;;5112967;28;20014;-67
2022/06/15 07:46:34;;;;;;;;;;;19.20;99.90;;;;;;5114049;28;20359;-67
2022/06/15 07:51:46;;;;;;;;;;;19.30;99.90;;;;;;5114085;28;19926;-67
2022/06/15 07:54:13;;;;;;;;;;;19.40;99.90;;;;;;5112414;28;19930;-67
2022/06/15 07:56:38;;;;;;;;;;;19.50;99.90;;;;;;5113921;28;20286;-67
2022/06/15 07:59:04;;;;;;;;;;;19.40;99.90;;;;;;5113392;28;19919;-67
2022/06/15 08:01:29;;;;;;;;;;;19.40;99.90;;;;;;5112598;28;19969;-67
2022/06/15 08:03:55;;;;;;;;;;;19.40;99.90;;;;;;5112149;28;19924;-67
2022/06/15 08:06:21;;;;;;;;;;;19.50;99.90;;;;;;5113607;28;20368;-67
2022/06/15 08:08:47;;;;;;;;;;;19.60;99.90;;;;;;5113441;28;19924;-67
2022/06/15 08:11:13;;;;;;;;;;;19.60;99.90;;;;;;5113666;28;19965;-67
2022/06/15 08:13:38;;;;;;;;;;;19.70;99.90;;;;;;5113491;28;19924;-67
2022/06/15 08:16:04;;;;;;;;;;;19.90;99.90;;;;;;5113411;28;19946;-67
2022/06/15 08:18:32;;;;;;;;;;;19.80;99.90;;;;;;5113103;28;19926;-67
2022/06/15 08:20:59;;;;;;;;;;;19.80;99.90;;;;;;5113286;28;19924;-67
2022/06/15 08:23:26;;;;;;;;;;;20.00;99.90;;;;;;5111911;28;19920;-67
2022/06/15 08:25:55;;;;;;;;;;;20.10;99.90;;;;;;5113377;28;19919;-66
2022/06/15 08:28:22;;;;;;;;;;;20.10;99.90;;;;;;5113060;28;19943;-67
2022/06/15 08:30:48;;;;;;;;;;;20.10;99.90;;;;;;5112935;28;19972;-66
2022/06/15 08:33:14;;;;;;;;;;;20.10;99.90;;;;;;5113431;28;19931;-67
2022/06/15 08:35:39;;;;;;;;;;;20.10;99.90;;;;;;5112922;28;20379;-67
2022/06/15 08:38:09;;;;;;;;;;;20.10;98.70;;;;;;5113072;28;19920;-67
2022/06/15 08:40:50;;;;;;;;;;;20.20;99.90;;;;;;5111723;28;20276;-67
2022/06/15 08:43:24;;;;;;;;;;;20.10;99.90;;;;;;5112826;28;19920;-67
2022/06/15 08:45:52;;;;;;;;;;;20.30;99.90;;;;;;5112994;28;19920;-67
2022/06/15 08:48:38;;;;;;;;;;;20.30;99.90;;;;;;5112782;28;20287;-67
2022/06/15 08:51:15;;;;;;;;;;;20.40;99.90;;;;;;5112857;28;19919;-68
2022/06/15 08:53:47;;;;;;;;;;;20.40;99.90;;;;;;5112637;28;19974;-67
2022/06/15 08:56:14;;;;;;;;;;;20.50;99.90;;;;;;5112685;28;19988;-67
2022/06/15 08:58:44;;;;;;;;;;;20.40;99.90;;;;;;5112377;28;19923;-67
2022/06/15 09:01:14;;;;;;;;;;;20.40;99.00;;;;;;5112595;28;19926;-67
2022/06/15 09:03:47;;;;;;;;;;;20.50;99.80;;;;;;5112526;28;19920;-67
2022/06/15 09:06:28;;;;;;;;;;;20.60;99.90;;;;;;5112480;28;19920;-67
2022/06/15 09:09:08;;;;;;;;;;;20.50;99.00;;;;;;5112163;28;19927;-67
2022/06/15 09:11:52;;;;;;;;;;;20.50;98.30;;;;;;5112419;28;19920;-67
2022/06/15 09:14:18;;;;;;;;;;;20.40;99.30;;;;;;5112156;28;19979;-67
2022/06/15 09:16:47;;;;;;;;;;;20.60;98.80;;;;;;5111815;28;19920;-67
2022/06/15 09:19:16;;;;;;;;;;;20.50;98.50;;;;;;5111953;28;19923;-67
2022/06/15 09:21:48;;;;;;;;;;;20.70;99.90;;;;;;5112381;28;20300;-67
2022/06/15 09:24:17;;;;;;;;;;;20.60;99.20;;;;;;5112017;27;20018;-67
2022/06/15 09:26:53;;;;;;;;;;;20.40;97.90;;;;;;5112204;28;20018;-67
2022/06/15 09:29:23;;;;;;;;;;;20.60;99.20;;;;;;5111600;28;19964;-67
2022/06/15 09:32:04;;;;;;;;;;;20.60;98.70;;;;;;5112329;28;20331;-67
2022/06/15 09:34:40;;;;;;;;;;;20.50;97.60;;;;;;5111992;28;19935;-67
2022/06/15 09:37:15;;;;;;;;;;;20.60;98.60;;;;;;5112112;28;20483;-67
2022/06/15 09:39:41;;;;;;;;;;;20.70;98.40;;;;;;5111700;28;19923;-67
2022/06/15 09:42:09;;;;;;;;;;;20.80;97.80;;;;;;5112180;28;19926;-67
2022/06/15 09:44:37;;;;;;;;;;;20.60;98.30;;;;;;5112093;28;20308;-67
2022/06/15 09:47:18;;;;;;;;;;;20.80;98.30;;;;;;5112014;28;19919;-67
2022/06/15 09:50:01;;;;;;;;;;;20.80;98.70;;;;;;5111467;28;19924;-67
2022/06/15 09:52:39;;;;;;;;;;;20.70;99.20;;;;;;5111997;28;19927;-67
2022/06/15 09:55:16;;;;;;;;;;;20.40;99.90;;;;;;5111893;28;20296;-67
2022/06/15 09:57:43;;;;;;;;;;;20.50;99.90;;;;;;5111711;28;19927;-67
2022/06/15 10:00:10;;;;;;;;;;;20.60;99.30;;;;;;5111301;28;19964;-68
2022/06/15 10:02:38;;;;;;;;;;;20.70;98.40;;;;;;5111584;28;19928;-68
2022/06/15 10:05:05;;;;;;;;;;;20.70;98.60;;;;;;5111830;28;20413;-68
2022/06/15 10:07:43;;;;;;;;;;;20.70;98.40;;;;;;5111613;28;19924;-67
2022/06/15 10:10:22;;;;;;;;;;;20.70;98.40;;;;;;5111314;28;19931;-68
2022/06/15 10:13:02;;;;;;;;;;;20.80;98.80;;;;;;5111528;28;20398;-67
2022/06/15 10:15:33;;;;;;;;;;;20.80;99.90;;;;;;5111646;28;19920;-67
2022/06/15 10:18:01;;;;;;;;;;;20.80;98.00;;;;;;5111810;28;20358;-67
2022/06/15 10:20:31;;;;;;;;;;;21.00;98.60;;;;;;5111531;28;19931;-67
2022/06/15 10:22:58;;;;;;;;;;;20.90;97.80;;;;;;5111656;28;19972;-68
2022/06/15 10:25:24;;;;;;;;;;;20.90;98.60;;;;;;5111668;28;19927;-67
2022/06/15 10:27:51;;;;;;;;;;;21.10;98.60;;;;;;5113339;28;20034;-67
2022/06/15 10:30:23;;;;;;;;;;;21.30;99.80;;;;;;5115270;28;19924;-68
2022/06/15 10:33:00;;;;;;;;;;;21.20;98.40;;;;;;5115392;28;19920;-68
2022/06/15 10:35:28;;;;;;;;;;;21.30;97.20;;;;;;5115350;28;19935;-67
2022/06/15 10:37:56;;;;;;;;;;;21.30;97.50;;;;;;5115341;28;20368;-68
2022/06/15 10:40:22;;;;;;;;;;;21.40;98.20;;;;;;5114964;28;19927;-67
2022/06/15 10:42:53;;;;;;;;;;;21.40;97.80;;;;;;5115306;28;19927;-68
2022/06/15 10:45:27;;;;;;;;;;;21.40;97.30;;;;;;5115426;27;19920;-68
2022/06/15 10:48:04;;;;;;;;;;;21.50;97.50;;;;;;5115216;28;19926;-68
2022/06/15 10:50:39;;;;;;;;;;;21.40;97.40;;;;;;5114756;28;19924;-68
2022/06/15 10:53:06;;;;;;;;;;;21.60;96.90;;;;;;5115154;28;19919;-67
2022/06/15 11:04:12;;;;;;;;;;;21.60;99.10;;;;;;5114942;28;19919;-68
2022/06/15 11:06:40;;;;;;;;;;;21.50;96.00;;;;;;5114996;28;19920;-68
2022/06/15 11:09:15;;;;;;;;;;;21.50;96.90;;;;;;5114419;27;19924;-67
2022/06/15 11:11:40;;;;;;;;;;;21.40;97.00;;;;;;5115001;28;19924;-67
2022/06/15 11:14:12;;;;;;;;;;;21.50;98.40;;;;;;5114814;28;19993;-68
2022/06/15 11:19:23;;;;;;;;;;;21.60;96.90;;;;;;5114329;28;19919;-68
2022/06/15 11:21:51;;;;;;;;;;;21.60;97.70;;;;;;5114433;28;19980;-67
2022/06/15 11:24:25;;;;;;;;;;;21.70;96.50;;;;;;5114590;28;19923;-68
2022/06/15 11:26:54;;;;;;;;;;;21.70;96.50;;;;;;5114571;28;19994;-68
2022/06/15 11:29:28;;;;;;;;;;;21.90;94.80;;;;;;5114056;28;19959;-68
2022/06/15 11:31:54;;;;;;;;;;;21.70;95.20;;;;;;5114279;28;20363;-68
2022/06/15 11:34:23;;;;;;;;;;;21.70;96.50;;;;;;5114096;28;19924;-68
2022/06/15 11:36:55;;;;;;;;;;;21.70;96.30;;;;;;5114386;28;20313;-68
2022/06/15 11:39:23;;;;;;;;;;;21.70;95.70;;;;;;5113864;28;19919;-68
2022/06/15 11:41:51;;;;;;;;;;;21.70;96.00;;;;;;5114583;27;19973;-68
2022/06/15 11:44:36;;;;;;;;;;;21.70;96.50;;;;;;5114214;28;19926;-68
2022/06/15 11:47:04;;;;;;;;;;;21.80;95.90;;;;;;5114276;27;20149;-68
2022/06/15 11:49:50;;;;;;;;;;;21.80;96.50;;;;;;5114059;28;19923;-68
2022/06/15 11:52:21;;;;;;;;;;;21.80;96.10;;;;;;5114305;28;20089;-67
2022/06/15 11:54:59;;;;;;;;;;;21.90;96.50;;;;;;5113836;28;19989;-68
2022/06/15 11:57:38;;;;;;;;;;;21.90;95.70;;;;;;5113703;28;20018;-68
2022/06/15 12:00:19;;;;;;;;;;;21.90;95.10;;;;;;5113338;28;20436;-68
2022/06/15 12:02:51;;;;;;;;;;;21.90;96.60;;;;;;5113704;28;19926;-67
2022/06/15 12:05:35;;;;;;;;;;;21.80;96.80;;;;;;5113536;28;19923;-67
2022/06/15 12:08:10;;;;;;;;;;;21.90;95.60;;;;;;5113561;28;20384;-67
2022/06/15 12:10:35;;;;;;;;;;;21.90;94.80;;;;;;5113400;28;20018;-67
2022/06/15 12:13:04;;;;;;;;;;;22.00;95.00;;;;;;5113540;28;20426;-68
2022/06/15 12:15:35;;;;;;;;;;;22.10;96.30;;;;;;5113489;28;19951;-68
2022/06/15 12:18:11;;;;;;;;;;;22.20;97.20;;;;;;5113458;28;19920;-68
2022/06/15 12:21:00;;;;;;;;;;;22.00;95.10;;;;;;5113118;28;19920;-67
2022/06/15 12:23:35;;;;;;;;;;;22.00;95.90;;;;;;5102336;28;20327;-67
2022/06/15 12:26:13;;;;;;;;;;;21.90;94.60;;;;;;5113278;28;19920;-68
2022/06/15 12:28:57;;;;;;;;;;;22.00;95.10;;;;;;5112811;28;19935;-68
2022/06/15 12:31:29;;;;;;;;;;;22.00;95.10;;;;;;5113233;28;19919;-67
2022/06/15 12:34:17;;;;;;;;;;;21.90;95.40;;;;;;5113169;28;19919;-68
2022/06/15 12:36:42;;;;;;;;;;;22.00;95.40;;;;;;5113068;28;19923;-68
2022/06/15 12:39:10;;;;;;;;;;;21.90;95.90;;;;;;5112646;28;19927;-68
2022/06/15 12:44:22;;;;;;;;;;;22.00;94.40;;;;;;5112967;28;19931;-68
2022/06/15 12:46:49;;;;;;;;;;;22.10;94.60;;;;;;5112949;28;19920;-68
2022/06/15 12:49:34;;;;;;;;;;;22.00;94.80;;;;;;5112075;28;19924;-68
2022/06/15 12:52:02;;;;;;;;;;;22.10;97.30;;;;;;5112842;28;19920;-68
2022/06/15 12:54:46;;;;;;;;;;;22.00;95.20;;;;;;5112743;28;20292;-67
2022/06/15 12:57:14;;;;;;;;;;;22.00;96.50;;;;;;5112585;28;19927;-67
2022/06/15 12:59:45;;;;;;;;;;;22.00;95.20;;;;;;5112134;28;19920;-68
2022/06/15 13:02:19;;;;;;;;;;;22.20;95.90;;;;;;5112728;28;19931;-68
2022/06/15 13:05:09;;;;;;;;;;;22.30;95.50;;;;;;5112869;28;20312;-68
2022/06/15 13:07:36;;;;;;;;;;;22.30;95.30;;;;;;5102574;28;19920;-68
2022/06/15 13:10:08;;;;;;;;;;;22.40;96.50;;;;;;5112427;28;20010;-68
2022/06/15 13:12:35;;;;;;;;;;;22.40;95.20;;;;;;5112852;28;20304;-68
2022/06/15 13:15:00;;;;;;;;;;;22.40;95.20;;;;;;5112617;28;19923;-67
2022/06/15 13:17:28;;;;;;;;;;;22.40;93.70;;;;;;5112426;28;19931;-67
2022/06/15 13:20:05;;;;;;;;;;;22.40;92.30;;;;;;5111944;28;20337;-68
2022/06/15 13:22:32;;;;;;;;;;;22.40;91.10;;;;;;5112188;28;19919;-67
2022/06/15 13:25:09;;;;;;;;;;;22.30;91.40;;;;;;5111986;28;19920;-68
2022/06/15 13:27:40;;;;;;;;;;;22.40;94.30;;;;;;5112272;28;19927;-67
2022/06/15 13:30:09;;;;;;;;;;;22.50;94.40;;;;;;5111772;28;19928;-68
2022/06/15 13:32:49;;;;;;;;;;;22.50;92.80;;;;;;5111900;28;20383;-68
2022/06/15 13:35:22;;;;;;;;;;;22.50;92.10;;;;;;5111790;28;19926;-68
2022/06/15 13:38:06;;;;;;;;;;;22.50;92.60;;;;;;5112137;28;19920;-68
2022/06/15 13:40:50;;;;;;;;;;;22.40;91.50;;;;;;5111726;28;19924;-67
2022/06/15 13:43:16;;;;;;;;;;;22.40;93.40;;;;;;5111792;28;19967;-67
2022/06/15 13:45:41;;;;;;;;;;;22.30;93.20;;;;;;5111751;28;19970;-67
2022/06/15 13:48:12;;;;;;;;;;;22.30;94.20;;;;;;5111990;28;20024;-67
2022/06/15 13:50:48;;;;;;;;;;;22.30;93.70;;;;;;5111642;28;19930;-68
2022/06/15 13:53:34;;;;;;;;;;;22.30;94.60;;;;;;5111737;28;19920;-68
2022/06/15 13:56:18;;;;;;;;;;;22.40;93.40;;;;;;5069652;28;19926;-68
2022/06/15 13:58:43;;;;;;;;;;;22.40;95.40;;;;;;5111466;28;20292;-68
2022/06/15 14:01:15;;;;;;;;;;;22.30;96.00;;;;;;5111324;28;19920;-67
2022/06/15 14:03:57;;;;;;;;;;;22.30;96.00;;;;;;5115980;28;19919;-68
2022/06/15 14:06:46;;;;;;;;;;;22.60;96.00;;;;;;5115898;28;20368;-67
2022/06/15 14:09:30;;;;;;;;;;;22.80;95.50;;;;;;5115751;28;19927;-68
2022/06/15 14:12:18;;;;;;;;;;;22.80;94.30;;;;;;5115967;28;19976;-67
2022/06/15 14:14:49;;;;;;;;;;;23.10;94.80;;;;;;5115651;28;19921;-68
2022/06/15 14:17:42;;;;;;;;;;;22.70;91.90;;;;;;5115914;28;19924;-68
2022/06/15 14:20:10;;;;;;;;;;;22.70;92.80;;;;;;5115420;28;20429;-67
2022/06/15 14:22:51;;;;;;;;;;;22.80;94.00;;;;;;5115583;28;19924;-68
2022/06/15 14:25:17;;;;;;;;;;;22.70;92.90;;;;;;5115501;28;19920;-68
2022/06/15 14:27:48;;;;;;;;;;;22.50;91.90;;;;;;5115747;28;19920;-68
2022/06/15 14:30:20;;;;;;;;;;;22.40;92.80;;;;;;5115267;28;20015;-68
2022/06/15 14:32:54;;;;;;;;;;;22.40;92.70;;;;;;5115466;28;20364;-68
2022/06/15 14:35:21;;;;;;;;;;;22.40;93.60;;;;;;5114381;28;20299;-68
2022/06/15 14:38:04;;;;;;;;;;;22.40;94.10;;;;;;5115291;28;20014;-68
2022/06/15 14:40:36;;;;;;;;;;;22.40;93.10;;;;;;5115282;27;19920;-67
2022/06/15 14:43:02;;;;;;;;;;;22.50;94.40;;;;;;5115280;28;20018;-68
2022/06/15 14:45:38;;;;;;;;;;;22.50;94.10;;;;;;5115208;28;20435;-67
2022/06/15 14:48:06;;;;;;;;;;;22.60;95.00;;;;;;5115031;27;19955;-67
2022/06/15 14:50:33;;;;;;;;;;;22.50;94.10;;;;;;5114931;28;20018;-67